Lugano, Switzerland
Current Conditions -  °F | °C
As of 3:20 AM on Sunday 21 Dec 2014 (Local Time) from LSZA Reporting Station
Clear Clear  
Wind Chill: 43°   Ceiling: Unl
Heat Index: 48°   Visibility: 6mi
Dew Point: 27°   Wind: 14mph
Humidity: 43%   Direction: 10°N
Pressure: 30.21"   Gusts: NA
Location:  46.01°N, 8.94°E
Report Text: LSZA 210220Z AUTO 01012KT CAVOK 09/M03 Q1023
Loading
Personal Weather Stations






























Interactive Weather Map New forecast layout! Learn more

10-Day Weather Forecast

Advertisements
Track Severe Weather on mobile